createdAt,value
2023-04-06T00:00:03.384Z,4.14
2023-04-06T00:01:03.325Z,4.13
2023-04-06T00:02:03.330Z,4.13
2023-04-06T00:03:03.374Z,4.11
2023-04-06T00:04:03.349Z,4.10
2023-04-06T00:05:03.293Z,4.10
2023-04-06T00:06:03.278Z,4.08
2023-04-06T00:07:03.224Z,4.07
2023-04-06T00:08:03.277Z,4.06
2023-04-06T00:09:03.238Z,4.06
2023-04-06T00:10:03.229Z,4.04
2023-04-06T00:11:03.202Z,4.04
2023-04-06T00:12:03.197Z,4.02
2023-04-06T00:13:03.248Z,4.02
2023-04-06T00:14:03.172Z,4.00
2023-04-06T00:15:03.135Z,3.98
2023-04-06T00:16:03.132Z,3.98
2023-04-06T00:17:03.170Z,3.96
2023-04-06T00:18:03.127Z,3.95
2023-04-06T00:19:03.099Z,3.95
2023-04-06T00:20:03.105Z,3.95
2023-04-06T00:21:03.064Z,3.93
2023-04-06T00:22:03.161Z,3.92
2023-04-06T00:23:03.065Z,3.92
2023-04-06T00:24:03.062Z,3.90
2023-04-06T00:25:03.040Z,3.88
2023-04-06T00:26:03.029Z,3.88
2023-04-06T00:27:03.026Z,3.86
2023-04-06T00:28:03.002Z,3.88
2023-04-06T00:29:02.952Z,3.86
2023-04-06T00:30:02.976Z,3.86
2023-04-06T00:31:02.934Z,3.86
2023-04-06T00:32:02.997Z,3.84
2023-04-06T00:33:02.961Z,3.82
2023-04-06T00:34:02.931Z,3.84
2023-04-06T00:35:02.900Z,3.80
2023-04-06T00:36:02.905Z,3.80
2023-04-06T00:37:02.865Z,3.80
2023-04-06T00:38:02.857Z,3.80
2023-04-06T00:39:02.837Z,3.78
2023-04-06T00:40:02.843Z,3.80
2023-04-06T00:41:02.828Z,3.80
2023-04-06T00:42:02.860Z,3.80
2023-04-06T00:43:02.801Z,3.78
2023-04-06T00:44:02.776Z,3.78
2023-04-06T00:45:02.925Z,3.78
2023-04-06T00:46:02.826Z,3.75
2023-04-06T00:47:02.734Z,3.75
2023-04-06T00:48:02.828Z,3.74
2023-04-06T00:49:02.720Z,3.72
2023-04-06T00:50:02.756Z,3.72
2023-04-06T00:51:02.732Z,3.72
2023-04-06T00:52:02.656Z,3.72
2023-04-06T00:53:02.647Z,3.72
2023-04-06T00:54:02.668Z,3.71
2023-04-06T00:55:02.620Z,3.71
2023-04-06T00:56:02.654Z,3.71
2023-04-06T00:57:02.604Z,3.70
2023-04-06T00:58:02.607Z,3.68
2023-04-06T00:59:02.620Z,3.67
2023-04-06T01:00:02.609Z,3.64
2023-04-06T01:01:02.578Z,3.63
2023-04-06T01:02:02.565Z,3.63
2023-04-06T01:03:02.588Z,3.64
2023-04-06T01:04:02.513Z,3.67
2023-04-06T01:05:02.549Z,3.67
2023-04-06T01:06:02.533Z,3.67
2023-04-06T01:07:02.516Z,3.64
2023-04-06T01:08:02.480Z,3.63
2023-04-06T01:09:02.489Z,3.64
2023-04-06T01:10:02.439Z,3.63
2023-04-06T01:11:02.455Z,3.64
2023-04-06T01:12:02.419Z,3.63
2023-04-06T01:13:02.409Z,3.64
2023-04-06T01:14:02.392Z,3.67
2023-04-06T01:15:02.418Z,3.67
2023-04-06T01:16:02.446Z,3.64
2023-04-06T01:17:02.356Z,3.67
2023-04-06T01:18:02.398Z,3.68
2023-04-06T01:19:02.301Z,3.68
2023-04-06T01:20:02.408Z,3.67
2023-04-06T01:21:02.295Z,3.67
2023-04-06T01:22:02.324Z,3.67
2023-04-06T01:23:02.317Z,3.67
2023-04-06T01:24:02.270Z,3.67
2023-04-06T01:25:02.281Z,3.63
2023-04-06T01:26:02.237Z,3.62
2023-04-06T01:27:02.228Z,3.62
2023-04-06T01:28:02.198Z,3.62
2023-04-06T01:29:02.171Z,3.60
2023-04-06T01:30:02.274Z,3.59
2023-04-06T01:31:02.181Z,3.56
2023-04-06T01:32:02.174Z,3.54
2023-04-06T01:33:02.205Z,3.56
2023-04-06T01:34:02.147Z,3.57
2023-04-06T01:35:02.212Z,3.59
2023-04-06T01:36:02.160Z,3.57
2023-04-06T01:37:02.068Z,3.56
2023-04-06T01:38:02.099Z,3.54
2023-04-06T01:39:02.042Z,3.54
2023-04-06T01:40:02.098Z,3.53
2023-04-06T01:41:02.058Z,3.52
2023-04-06T01:42:02.022Z,3.50
2023-04-06T01:43:02.036Z,3.49
2023-04-06T01:44:02.016Z,3.49
2023-04-06T01:45:02.034Z,3.46
2023-04-06T01:46:01.994Z,3.45
2023-04-06T01:47:02.024Z,3.44
2023-04-06T01:48:02.005Z,3.44
2023-04-06T01:49:01.964Z,3.42
2023-04-06T01:50:01.946Z,3.44
2023-04-06T01:51:01.949Z,3.41
2023-04-06T01:52:01.911Z,3.42
2023-04-06T01:53:01.922Z,3.41
2023-04-06T01:54:01.871Z,3.39
2023-04-06T01:55:01.861Z,3.37
2023-04-06T01:56:01.846Z,3.37
2023-04-06T01:57:01.935Z,3.39
2023-04-06T01:58:01.838Z,3.39
2023-04-06T01:59:01.867Z,3.39
2023-04-06T02:00:01.873Z,3.41
2023-04-06T02:01:01.796Z,3.42
2023-04-06T02:02:01.846Z,3.39
2023-04-06T02:03:01.831Z,3.39
2023-04-06T02:04:01.759Z,3.39
2023-04-06T02:05:01.744Z,3.39
2023-04-06T02:06:01.740Z,3.37
2023-04-06T02:07:01.763Z,3.39
2023-04-06T02:08:01.747Z,3.37
2023-04-06T02:09:01.686Z,3.37
2023-04-06T02:10:01.696Z,3.37
2023-04-06T02:11:01.626Z,3.37
2023-04-06T02:12:01.634Z,3.35
2023-04-06T02:13:01.634Z,3.35
2023-04-06T02:14:01.610Z,3.34
2023-04-06T02:15:01.601Z,3.33
2023-04-06T02:16:01.594Z,3.35
2023-04-06T02:17:01.576Z,3.34
2023-04-06T02:18:01.665Z,3.33
2023-04-06T02:19:01.564Z,3.33
2023-04-06T02:20:01.600Z,3.33
2023-04-06T02:21:01.556Z,3.30
2023-04-06T02:22:01.554Z,3.33
2023-04-06T02:23:01.507Z,3.33
2023-04-06T02:24:01.476Z,3.31
2023-04-06T02:25:01.534Z,3.30
2023-04-06T02:26:01.450Z,3.28
2023-04-06T02:27:01.450Z,3.30
2023-04-06T02:28:01.419Z,3.28
2023-04-06T02:29:01.434Z,3.26
2023-04-06T02:30:01.482Z,3.28
2023-04-06T02:31:01.418Z,3.26
2023-04-06T02:32:01.489Z,3.26
2023-04-06T02:33:01.390Z,3.26
2023-04-06T02:34:01.384Z,3.26
2023-04-06T02:35:01.346Z,3.25
2023-04-06T02:36:01.382Z,3.26
2023-04-06T02:37:01.322Z,3.25
2023-04-06T02:38:01.285Z,3.23
2023-04-06T02:39:01.295Z,3.25
2023-04-06T02:40:01.304Z,3.25
2023-04-06T02:41:01.266Z,3.25
2023-04-06T02:42:01.263Z,3.25
2023-04-06T02:43:01.224Z,3.26
2023-04-06T02:44:01.241Z,3.23
2023-04-06T02:45:01.226Z,3.28
2023-04-06T02:46:01.253Z,3.23
2023-04-06T02:47:01.172Z,3.23
2023-04-06T02:48:01.246Z,3.23
2023-04-06T02:49:01.144Z,3.19
2023-04-06T02:50:01.173Z,3.20
2023-04-06T02:51:01.110Z,3.16
2023-04-06T02:52:01.153Z,3.17
2023-04-06T02:53:01.107Z,3.16
2023-04-06T02:54:01.090Z,3.15
2023-04-06T02:55:01.102Z,3.13
2023-04-06T02:56:01.046Z,3.13
2023-04-06T02:57:01.038Z,3.12
2023-04-06T02:58:01.062Z,3.10
2023-04-06T02:59:01.100Z,3.07
2023-04-06T03:00:01.030Z,3.07
2023-04-06T03:01:01.013Z,3.04
2023-04-06T03:02:00.969Z,3.04
2023-04-06T03:03:01.069Z,3.04
2023-04-06T03:04:00.970Z,3.02
2023-04-06T03:05:00.986Z,3.04
2023-04-06T03:06:00.937Z,3.01
2023-04-06T03:07:01.511Z,3.01
2023-04-06T03:08:00.926Z,3.02
2023-04-06T03:09:00.894Z,3.01
2023-04-06T03:10:00.885Z,2.98
2023-04-06T03:11:00.896Z,2.97
2023-04-06T03:12:00.862Z,2.95
2023-04-06T03:13:00.867Z,2.92
2023-04-06T03:14:00.864Z,2.90
2023-04-06T03:15:00.803Z,2.92
2023-04-06T03:16:00.794Z,2.89
2023-04-06T03:17:00.774Z,2.87
2023-04-06T03:18:00.889Z,2.87
2023-04-06T03:19:00.786Z,2.86
2023-04-06T03:20:00.788Z,2.83
2023-04-06T03:21:00.743Z,2.83
2023-04-06T03:22:00.738Z,2.83
2023-04-06T03:23:00.711Z,2.81
2023-04-06T03:24:00.703Z,2.83
2023-04-06T03:25:03.440Z,2.80
2023-04-06T03:26:00.679Z,2.80
2023-04-06T03:27:00.660Z,2.80
2023-04-06T03:28:00.656Z,2.79
2023-04-06T03:29:00.686Z,2.76
2023-04-06T03:30:00.593Z,2.74
2023-04-06T03:31:00.724Z,2.73
2023-04-06T03:32:00.615Z,2.71
2023-04-06T03:33:00.622Z,2.71
2023-04-06T03:34:00.605Z,2.73
2023-04-06T03:35:00.598Z,2.73
2023-04-06T03:36:00.568Z,2.73
2023-04-06T03:37:09.285Z,2.69
2023-04-06T03:38:01.520Z,2.71
2023-04-06T03:39:00.545Z,2.68
2023-04-06T03:40:00.498Z,2.66
2023-04-06T03:41:00.464Z,2.66
2023-04-06T03:42:00.462Z,2.66
2023-04-06T03:43:00.471Z,2.65
2023-04-06T03:44:00.417Z,2.65
2023-04-06T03:45:00.459Z,2.63
2023-04-06T03:46:00.416Z,2.62
2023-04-06T03:47:00.464Z,2.65
2023-04-06T03:48:00.453Z,2.63
2023-04-06T03:49:00.365Z,2.65
2023-04-06T03:50:00.347Z,2.65
2023-04-06T03:51:00.381Z,2.63
2023-04-06T03:52:00.371Z,2.65
2023-04-06T03:53:00.338Z,2.63
2023-04-06T03:54:00.282Z,2.63
2023-04-06T03:55:00.316Z,2.63
2023-04-06T03:56:01.713Z,2.63
2023-04-06T03:57:00.287Z,2.62
2023-04-06T03:58:00.230Z,2.63
2023-04-06T03:59:00.272Z,2.61
2023-04-06T04:00:00.247Z,2.62
2023-04-06T04:01:00.199Z,2.63
2023-04-06T04:02:00.204Z,2.62
2023-04-06T04:03:00.260Z,2.63
2023-04-06T04:04:00.371Z,2.61
2023-04-06T04:05:00.199Z,2.61
2023-04-06T04:06:00.138Z,2.61
2023-04-06T04:07:00.149Z,2.61
2023-04-06T04:08:00.132Z,2.61
2023-04-06T04:09:00.118Z,2.61
2023-04-06T04:10:00.161Z,2.59
2023-04-06T04:11:00.125Z,2.61
2023-04-06T04:12:00.085Z,2.59
2023-04-06T04:13:00.124Z,2.59
2023-04-06T04:14:00.033Z,2.61
2023-04-06T04:15:00.109Z,2.61
2023-04-06T04:16:00.211Z,2.61
2023-04-06T04:17:00.037Z,2.61
2023-04-06T04:18:00.031Z,2.58
2023-04-06T04:19:00.011Z,2.58
2023-04-06T04:20:00.008Z,2.62
2023-04-06T04:20:59.982Z,2.61
2023-04-06T04:21:59.965Z,2.59
2023-04-06T04:22:59.937Z,2.58
2023-04-06T04:23:59.920Z,2.56
2023-04-06T04:24:59.958Z,2.59
2023-04-06T04:25:59.935Z,2.55
2023-04-06T04:26:59.867Z,2.56
2023-04-06T04:27:59.840Z,2.55
2023-04-06T04:28:59.871Z,2.55
2023-04-06T04:29:59.859Z,2.53
2023-04-06T04:30:59.826Z,2.55
2023-04-06T04:31:59.840Z,2.53
2023-04-06T04:32:59.851Z,2.55
2023-04-06T04:33:59.822Z,2.53
2023-04-06T04:34:59.795Z,2.51
2023-04-06T04:35:59.799Z,2.51
2023-04-06T04:36:59.762Z,2.50
2023-04-06T04:37:59.741Z,2.50
2023-04-06T04:38:59.791Z,2.51
2023-04-06T04:39:59.735Z,2.53
2023-04-06T04:40:59.848Z,2.55
2023-04-06T04:41:59.680Z,2.56
2023-04-06T04:42:59.664Z,2.55
2023-04-06T04:43:59.686Z,2.56
2023-04-06T04:44:59.649Z,2.59
2023-04-06T04:45:59.690Z,2.58
2023-04-06T04:46:59.642Z,2.58
2023-04-06T04:47:59.663Z,2.58
2023-04-06T04:48:59.667Z,2.58
2023-04-06T04:49:59.614Z,2.56
2023-04-06T04:50:59.576Z,2.55
2023-04-06T04:51:59.546Z,2.55
2023-04-06T04:52:59.574Z,2.53
2023-04-06T04:53:59.544Z,2.51
2023-04-06T04:54:59.544Z,2.50
2023-04-06T04:55:59.501Z,2.50
2023-04-06T04:56:59.523Z,2.50
2023-04-06T04:57:59.477Z,2.51
2023-04-06T04:58:59.500Z,2.51
2023-04-06T04:59:59.519Z,2.50
2023-04-06T05:00:59.524Z,2.55
2023-04-06T05:01:59.482Z,2.55
2023-04-06T05:02:59.488Z,2.55
2023-04-06T05:03:59.414Z,2.55
2023-04-06T05:04:59.459Z,2.56
2023-04-06T05:05:59.388Z,2.61
2023-04-06T05:06:59.398Z,2.62
2023-04-06T05:07:59.374Z,2.63
2023-04-06T05:08:59.362Z,2.65
2023-04-06T05:09:59.361Z,2.65
2023-04-06T05:10:59.328Z,2.66
2023-04-06T05:11:59.328Z,2.63
2023-04-06T05:12:59.325Z,2.66
2023-04-06T05:13:59.271Z,2.69
2023-04-06T05:14:59.304Z,2.73
2023-04-06T05:15:59.323Z,2.74
2023-04-06T05:16:59.286Z,2.74
2023-04-06T05:17:59.307Z,2.73
2023-04-06T05:18:59.238Z,2.73
2023-04-06T05:19:59.185Z,2.74
2023-04-06T05:20:59.260Z,2.76
2023-04-06T05:21:59.150Z,2.79
2023-04-06T05:22:59.200Z,2.80
2023-04-06T05:23:59.126Z,2.81
2023-04-06T05:24:59.141Z,2.80
2023-04-06T05:25:59.176Z,2.81
2023-04-06T05:26:59.119Z,2.80
2023-04-06T05:27:59.109Z,2.81
2023-04-06T05:28:59.135Z,2.84
2023-04-06T05:29:59.064Z,2.86
2023-04-06T05:30:59.152Z,2.84
2023-04-06T05:31:59.098Z,2.87
2023-04-06T05:32:59.095Z,2.86
2023-04-06T05:33:59.029Z,2.87
2023-04-06T05:34:59.013Z,2.90
2023-04-06T05:35:59.023Z,2.95
2023-04-06T05:36:59.023Z,2.99
2023-04-06T05:37:58.979Z,3.01
2023-04-06T05:38:58.998Z,3.01
2023-04-06T05:39:58.938Z,3.02
2023-04-06T05:40:58.930Z,3.05
2023-04-06T05:41:58.953Z,3.04
2023-04-06T05:42:58.931Z,3.07
2023-04-06T05:43:58.968Z,3.08
2023-04-06T05:44:58.890Z,3.07
2023-04-06T05:45:58.843Z,3.08
2023-04-06T05:46:58.908Z,3.08
2023-04-06T05:47:58.947Z,3.12
2023-04-06T05:48:58.900Z,3.15
2023-04-06T05:49:58.819Z,3.16
2023-04-06T05:50:58.809Z,3.15
2023-04-06T05:51:58.796Z,3.15
2023-04-06T05:52:58.806Z,3.17
2023-04-06T05:53:58.773Z,3.20
2023-04-06T05:54:58.746Z,3.20
2023-04-06T05:55:58.730Z,3.22
2023-04-06T05:56:58.753Z,3.23
2023-04-06T05:57:58.703Z,3.26
2023-04-06T05:58:58.702Z,3.28
2023-04-06T05:59:58.691Z,3.31
2023-04-06T06:00:58.684Z,3.34
2023-04-06T06:01:58.685Z,3.39
2023-04-06T06:02:58.711Z,3.42
2023-04-06T06:03:58.615Z,3.42
2023-04-06T06:04:58.736Z,3.45
2023-04-06T06:05:58.647Z,3.49
2023-04-06T06:06:58.622Z,3.50
2023-04-06T06:07:58.570Z,3.54
2023-04-06T06:08:58.567Z,3.57
2023-04-06T06:09:58.564Z,3.57
2023-04-06T06:10:58.566Z,3.60
2023-04-06T06:11:58.504Z,3.62
2023-04-06T06:12:58.524Z,3.62
2023-04-06T06:13:58.500Z,3.63
2023-04-06T06:14:58.528Z,3.64
2023-04-06T06:15:58.540Z,3.64
2023-04-06T06:16:58.442Z,3.67
2023-04-06T06:17:58.541Z,3.67
2023-04-06T06:18:58.417Z,3.67
2023-04-06T06:19:58.447Z,3.70
2023-04-06T06:20:58.452Z,3.71
2023-04-06T06:21:58.379Z,3.74
2023-04-06T06:22:58.368Z,3.75
2023-04-06T06:23:58.371Z,3.78
2023-04-06T06:24:58.377Z,3.81
2023-04-06T06:25:58.330Z,3.84
2023-04-06T06:26:58.317Z,3.86
2023-04-06T06:27:58.333Z,3.86
2023-04-06T06:28:58.302Z,3.90
2023-04-06T06:29:58.355Z,3.93
2023-04-06T06:30:58.332Z,3.98
2023-04-06T06:31:58.348Z,4.02
2023-04-06T06:32:58.365Z,4.07
2023-04-06T06:33:58.219Z,4.08
2023-04-06T06:34:58.260Z,4.11
2023-04-06T06:35:58.280Z,4.14
2023-04-06T06:36:58.192Z,4.17
2023-04-06T06:37:58.208Z,4.20
2023-04-06T06:38:58.176Z,4.25
2023-04-06T06:39:58.174Z,4.25
2023-04-06T06:40:58.158Z,4.29
2023-04-06T06:41:58.159Z,4.32
2023-04-06T06:42:58.133Z,4.36
2023-04-06T06:43:58.108Z,4.39
2023-04-06T06:44:58.173Z,4.43
2023-04-06T06:45:58.164Z,4.46
2023-04-06T06:46:58.076Z,4.50
2023-04-06T06:47:58.104Z,4.54
2023-04-06T06:48:58.116Z,4.56
2023-04-06T06:49:58.080Z,4.59
2023-04-06T06:50:58.077Z,4.62
2023-04-06T06:51:57.983Z,4.65
2023-04-06T06:52:57.984Z,4.67
2023-04-06T06:53:58.069Z,4.68
2023-04-06T06:54:58.030Z,4.72
2023-04-06T06:55:57.984Z,4.75
2023-04-06T06:56:57.952Z,4.77
2023-04-06T06:57:57.949Z,4.80
2023-04-06T06:58:57.965Z,4.83
2023-04-06T06:59:57.907Z,4.86
2023-04-06T07:00:57.932Z,4.91
2023-04-06T07:01:57.911Z,4.94
2023-04-06T07:02:57.896Z,4.99
2023-04-06T07:03:57.869Z,5.02
2023-04-06T07:04:57.866Z,5.08
2023-04-06T07:05:57.852Z,5.11
2023-04-06T07:06:57.829Z,5.15
2023-04-06T07:07:57.822Z,5.23
2023-04-06T07:08:57.837Z,5.29
2023-04-06T07:09:57.757Z,5.33
2023-04-06T07:10:57.874Z,5.41
2023-04-06T07:11:57.763Z,5.47
2023-04-06T07:12:57.785Z,5.52
2023-04-06T07:13:57.799Z,5.59
2023-04-06T07:14:57.897Z,5.66
2023-04-06T07:15:57.704Z,5.75
2023-04-06T07:16:57.794Z,5.81
2023-04-06T07:17:57.728Z,5.90
2023-04-06T07:18:57.685Z,5.98
2023-04-06T07:19:57.723Z,6.05
2023-04-06T07:20:57.682Z,6.13
2023-04-06T07:21:57.694Z,6.21
2023-04-06T07:22:57.591Z,6.30
2023-04-06T07:23:57.593Z,6.38
2023-04-06T07:24:58.355Z,6.45
2023-04-06T07:25:57.603Z,6.53
2023-04-06T07:26:57.587Z,6.63
2023-04-06T07:27:57.583Z,6.72
2023-04-06T07:28:57.540Z,6.78
2023-04-06T07:29:57.589Z,6.86
2023-04-06T07:30:57.488Z,6.94
2023-04-06T07:31:57.560Z,7.01
2023-04-06T07:32:57.576Z,7.11
2023-04-06T07:33:57.478Z,7.16
2023-04-06T07:34:57.468Z,7.19
2023-04-06T07:35:57.520Z,7.18
2023-04-06T07:36:57.399Z,7.19
2023-04-06T07:37:57.435Z,7.23
2023-04-06T07:38:57.399Z,7.24
2023-04-06T07:39:57.407Z,7.23
2023-04-06T07:40:57.401Z,7.23
2023-04-06T07:41:57.436Z,7.24
2023-04-06T07:42:58.182Z,7.24
2023-04-06T07:43:57.322Z,7.23
2023-04-06T07:44:57.319Z,7.26
2023-04-06T07:45:57.362Z,7.26
2023-04-06T07:46:57.286Z,7.29
2023-04-06T07:47:57.458Z,7.30
2023-04-06T07:48:57.283Z,7.32
2023-04-06T07:49:57.297Z,7.33
2023-04-06T07:50:57.221Z,7.37
2023-04-06T07:51:57.249Z,7.41
2023-04-06T07:52:57.201Z,7.44
2023-04-06T07:53:57.194Z,7.50
2023-04-06T07:54:57.219Z,7.51
2023-04-06T07:55:57.190Z,7.55
2023-04-06T07:56:57.152Z,7.55
2023-04-06T07:57:57.170Z,7.57
2023-04-06T07:58:57.138Z,7.60
2023-04-06T07:59:57.148Z,7.58
2023-04-06T08:00:57.112Z,7.57
2023-04-06T08:01:57.195Z,7.57
2023-04-06T08:02:57.204Z,7.55
2023-04-06T08:03:57.195Z,7.58
2023-04-06T08:04:57.211Z,7.57
2023-04-06T08:05:57.041Z,7.60
2023-04-06T08:06:57.033Z,7.62
2023-04-06T08:07:57.017Z,7.66
2023-04-06T08:08:57.017Z,7.67
2023-04-06T08:09:57.006Z,7.71
2023-04-06T08:10:57.009Z,7.73
2023-04-06T08:11:56.962Z,7.76
2023-04-06T08:12:56.976Z,7.82
2023-04-06T08:13:56.992Z,7.84
2023-04-06T08:14:56.963Z,7.88
2023-04-06T08:15:56.933Z,7.94
2023-04-06T08:16:56.970Z,8.00
2023-04-06T08:17:56.958Z,8.07
2023-04-06T08:18:56.863Z,8.13
2023-04-06T08:19:56.897Z,8.24
2023-04-06T08:20:56.867Z,8.34
2023-04-06T08:21:56.841Z,8.39
2023-04-06T08:22:56.854Z,8.45
2023-04-06T08:23:56.841Z,8.46
2023-04-06T08:24:56.821Z,8.50
2023-04-06T08:25:56.774Z,8.47
2023-04-06T08:26:56.770Z,8.49
2023-04-06T08:27:56.762Z,8.50
2023-04-06T08:28:56.765Z,8.54
2023-04-06T08:29:56.838Z,8.54
2023-04-06T08:30:56.795Z,8.52
2023-04-06T08:31:56.726Z,8.54
2023-04-06T08:32:56.763Z,8.54
2023-04-06T08:33:56.726Z,8.58
2023-04-06T08:34:56.743Z,8.58
2023-04-06T08:35:56.756Z,8.58
2023-04-06T08:36:56.655Z,8.61
2023-04-06T08:37:56.653Z,8.64
2023-04-06T08:38:56.647Z,8.64
2023-04-06T08:39:56.602Z,8.65
2023-04-06T08:40:56.612Z,8.65
2023-04-06T08:41:56.668Z,8.67
2023-04-06T08:42:56.575Z,8.65
2023-04-06T08:43:56.562Z,8.67
2023-04-06T08:44:56.579Z,8.71
2023-04-06T08:45:56.599Z,8.71
2023-04-06T08:46:56.655Z,8.73
2023-04-06T08:47:56.584Z,8.79
2023-04-06T08:48:56.488Z,8.82
2023-04-06T08:49:56.528Z,8.85
2023-04-06T08:50:56.472Z,8.94
2023-04-06T08:51:56.508Z,9.00
2023-04-06T08:52:56.422Z,9.06
2023-04-06T08:53:56.488Z,9.15
2023-04-06T08:54:56.430Z,9.19
2023-04-06T08:55:56.418Z,9.22
2023-04-06T08:56:56.421Z,9.23
2023-04-06T08:57:56.383Z,9.27
2023-04-06T08:58:56.434Z,9.32
2023-04-06T08:59:56.411Z,9.38
2023-04-06T09:00:56.340Z,9.40
2023-04-06T09:01:56.360Z,9.44
2023-04-06T09:02:56.424Z,9.42
2023-04-06T09:03:56.393Z,9.45
2023-04-06T09:04:56.431Z,9.49
2023-04-06T09:05:56.278Z,9.53
2023-04-06T09:06:56.284Z,9.62
2023-04-06T09:07:56.240Z,9.68
2023-04-06T09:08:56.263Z,9.74
2023-04-06T09:09:56.233Z,9.88
2023-04-06T09:10:56.219Z,9.92
2023-04-06T09:11:56.223Z,9.96
2023-04-06T09:12:56.182Z,10.01
2023-04-06T09:13:56.186Z,10.02
2023-04-06T09:14:56.141Z,10.06
2023-04-06T09:15:56.146Z,10.07
2023-04-06T09:16:56.142Z,10.11
2023-04-06T09:17:56.128Z,10.16
2023-04-06T09:18:56.109Z,10.22
2023-04-06T09:19:56.102Z,10.26
2023-04-06T09:20:56.080Z,10.34
2023-04-06T09:21:56.133Z,10.38
2023-04-06T09:22:56.030Z,10.42
2023-04-06T09:23:56.113Z,10.46
2023-04-06T09:24:56.028Z,10.49
2023-04-06T09:25:56.023Z,10.51
2023-04-06T09:26:55.994Z,10.51
2023-04-06T09:27:57.033Z,10.54
2023-04-06T09:28:55.964Z,10.52
2023-04-06T09:29:55.995Z,10.52
2023-04-06T09:30:55.954Z,10.55
2023-04-06T09:31:56.034Z,10.58
2023-04-06T09:32:56.021Z,10.58
2023-04-06T09:33:55.911Z,10.62
2023-04-06T09:34:55.872Z,10.66
2023-04-06T09:35:55.939Z,10.68
2023-04-06T09:36:55.875Z,10.68
2023-04-06T09:37:55.880Z,10.70
2023-04-06T09:38:55.877Z,10.72
2023-04-06T09:39:55.840Z,10.73
2023-04-06T09:41:01.385Z,10.76
2023-04-06T09:41:56.856Z,10.78
2023-04-06T09:42:55.786Z,10.80
2023-04-06T09:43:55.832Z,10.80
2023-04-06T09:44:59.864Z,10.78
2023-04-06T09:45:55.802Z,10.80
2023-04-06T09:46:59.570Z,10.81
2023-04-06T09:47:55.834Z,10.84
2023-04-06T09:48:55.740Z,10.87
2023-04-06T09:49:55.975Z,10.91
2023-04-06T09:50:56.777Z,10.98
2023-04-06T09:51:55.750Z,11.01
2023-04-06T09:52:55.761Z,11.02
2023-04-06T09:53:55.803Z,11.03
2023-04-06T09:54:55.641Z,11.08
2023-04-06T09:55:56.179Z,11.09
2023-04-06T09:56:55.669Z,11.12
2023-04-06T09:57:55.714Z,11.20
2023-04-06T09:58:55.580Z,11.24
2023-04-06T09:59:55.620Z,11.28
2023-04-06T10:00:55.610Z,11.30
2023-04-06T10:01:55.566Z,11.31
2023-04-06T10:02:55.650Z,11.35
2023-04-06T10:03:55.628Z,11.36
2023-04-06T10:04:55.517Z,11.38
2023-04-06T10:05:55.497Z,11.41
2023-04-06T10:06:55.513Z,11.39
2023-04-06T10:08:00.139Z,11.41
2023-04-06T10:08:56.417Z,11.44
2023-04-06T10:09:55.432Z,11.45
2023-04-06T10:10:55.434Z,11.46
2023-04-06T10:11:55.438Z,11.48
2023-04-06T10:12:55.397Z,11.51
2023-04-06T10:13:55.390Z,11.56
2023-04-06T10:14:55.397Z,11.59
2023-04-06T10:15:55.402Z,11.62
2023-04-06T10:16:55.334Z,11.63
2023-04-06T10:17:55.393Z,11.64
2023-04-06T10:18:55.310Z,11.67
2023-04-06T10:19:55.376Z,11.70
2023-04-06T10:20:55.308Z,11.77
2023-04-06T10:21:55.308Z,11.78
2023-04-06T10:22:55.273Z,11.81
2023-04-06T10:23:55.239Z,11.88
2023-04-06T10:24:55.239Z,11.90
2023-04-06T10:25:55.318Z,11.96
2023-04-06T10:26:55.207Z,11.98
2023-04-06T10:27:55.240Z,12.01
2023-04-06T10:28:55.214Z,12.03
2023-04-06T10:29:55.199Z,12.04
2023-04-06T10:30:55.131Z,12.04
2023-04-06T10:31:55.226Z,12.01
2023-04-06T10:32:55.201Z,12.01
2023-04-06T10:33:55.131Z,12.01
2023-04-06T10:34:55.140Z,12.01
2023-04-06T10:35:55.119Z,12.01
2023-04-06T10:36:55.081Z,12.03
2023-04-06T10:37:55.078Z,12.03
2023-04-06T10:38:55.055Z,12.05
2023-04-06T10:39:55.101Z,12.08
2023-04-06T10:40:55.010Z,12.11
2023-04-06T10:41:55.023Z,12.12
2023-04-06T10:42:55.014Z,12.12
2023-04-06T10:43:55.081Z,12.12
2023-04-06T10:44:54.978Z,12.12
2023-04-06T10:45:55.017Z,12.13
2023-04-06T10:46:54.941Z,12.12
2023-04-06T10:47:55.023Z,12.13
2023-04-06T10:48:54.928Z,12.13
2023-04-06T10:49:55.066Z,12.15
2023-04-06T10:50:54.934Z,12.16
2023-04-06T10:51:54.904Z,12.19
2023-04-06T10:52:54.892Z,12.19
2023-04-06T10:53:54.866Z,12.22
2023-04-06T10:54:54.859Z,12.21
2023-04-06T10:55:54.889Z,12.22
2023-04-06T10:56:54.813Z,12.22
2023-04-06T10:57:54.803Z,12.21
2023-04-06T10:58:54.839Z,12.25
2023-04-06T10:59:54.824Z,12.25
2023-04-06T11:00:54.797Z,12.29
2023-04-06T11:01:54.958Z,12.31
2023-04-06T11:02:54.770Z,12.34
2023-04-06T11:03:54.785Z,12.36
2023-04-06T11:04:54.731Z,12.34
2023-04-06T11:05:54.735Z,12.33
2023-04-06T11:06:54.663Z,12.31
2023-04-06T11:07:54.708Z,12.29
2023-04-06T11:08:54.669Z,12.26
2023-04-06T11:10:12.327Z,12.29
2023-04-06T11:10:55.692Z,12.26
2023-04-06T11:11:54.654Z,12.29
2023-04-06T11:12:54.614Z,12.30
2023-04-06T11:13:54.603Z,12.33
2023-04-06T11:14:54.607Z,12.34
2023-04-06T11:15:54.622Z,12.34
2023-04-06T11:16:54.550Z,12.34
2023-04-06T11:17:54.557Z,12.34
2023-04-06T11:18:54.533Z,12.34
2023-04-06T11:19:54.576Z,12.34
2023-04-06T11:20:54.528Z,12.34
2023-04-06T11:21:54.510Z,12.33
2023-04-06T11:22:54.505Z,12.33
2023-04-06T11:23:54.463Z,12.30
2023-04-06T11:24:54.477Z,12.31
2023-04-06T11:25:54.452Z,12.33
2023-04-06T11:26:54.430Z,12.36
2023-04-06T11:27:54.415Z,12.36
2023-04-06T11:28:54.403Z,12.36
2023-04-06T11:29:54.420Z,12.37
2023-04-06T11:30:54.415Z,12.40
2023-04-06T11:31:54.395Z,12.41
2023-04-06T11:32:54.388Z,12.40
2023-04-06T11:33:54.357Z,12.43
2023-04-06T11:34:54.351Z,12.43
2023-04-06T11:35:54.320Z,12.48
2023-04-06T11:36:54.335Z,12.49
2023-04-06T11:37:54.310Z,12.51
2023-04-06T11:38:54.306Z,12.49
2023-04-06T11:39:54.270Z,12.49
2023-04-06T11:40:54.281Z,12.49
2023-04-06T11:41:54.226Z,12.51
2023-04-06T11:42:54.236Z,12.49
2023-04-06T11:43:54.206Z,12.48
2023-04-06T11:44:54.247Z,12.48
2023-04-06T11:45:55.175Z,12.49
2023-04-06T11:46:54.185Z,12.48
2023-04-06T11:47:54.234Z,12.48
2023-04-06T11:48:54.215Z,12.46
2023-04-06T11:49:54.149Z,12.43
2023-04-06T11:50:54.162Z,12.44
2023-04-06T11:51:54.119Z,12.48
2023-04-06T11:52:54.126Z,12.49
2023-04-06T11:53:54.063Z,12.52
2023-04-06T11:54:54.091Z,12.51
2023-04-06T11:55:54.026Z,12.44
2023-04-06T11:56:54.072Z,12.49
2023-04-06T11:57:54.045Z,12.46
2023-04-06T11:58:54.038Z,12.49
2023-04-06T11:59:54.039Z,12.52
2023-04-06T12:00:54.002Z,12.59
2023-04-06T12:01:53.988Z,12.62
2023-04-06T12:02:54.029Z,12.70
2023-04-06T12:03:54.112Z,12.74
2023-04-06T12:04:54.027Z,12.77
2023-04-06T12:05:53.954Z,12.71
2023-04-06T12:06:53.914Z,12.56
2023-04-06T12:07:53.912Z,12.54
2023-04-06T12:08:53.866Z,12.54
2023-04-06T12:09:53.887Z,12.55
2023-04-06T12:10:53.883Z,12.59
2023-04-06T12:11:53.872Z,12.62
2023-04-06T12:12:53.838Z,12.66
2023-04-06T12:13:53.803Z,12.70
2023-04-06T12:14:53.841Z,12.76
2023-04-06T12:15:53.881Z,12.79
2023-04-06T12:16:53.783Z,12.76
2023-04-06T12:17:53.774Z,12.71
2023-04-06T12:18:53.794Z,12.70
2023-04-06T12:19:53.808Z,12.76
2023-04-06T12:20:53.718Z,12.76
2023-04-06T12:21:53.725Z,12.77
2023-04-06T12:22:53.712Z,12.80
2023-04-06T12:23:53.696Z,12.81
2023-04-06T12:24:53.747Z,12.81
2023-04-06T12:25:53.665Z,12.80
2023-04-06T12:26:59.501Z,12.80
2023-04-06T12:27:54.618Z,12.79
2023-04-06T12:28:53.637Z,12.74
2023-04-06T12:29:53.640Z,12.70
2023-04-06T12:30:53.584Z,12.71
2023-04-06T12:31:53.696Z,12.70
2023-04-06T12:32:53.602Z,12.71
2023-04-06T12:33:53.565Z,12.71
2023-04-06T12:34:53.552Z,12.74
2023-04-06T12:35:53.501Z,12.73
2023-04-06T12:36:53.570Z,12.70
2023-04-06T12:37:53.545Z,12.70
2023-04-06T12:38:53.520Z,12.73
2023-04-06T12:39:53.516Z,12.74
2023-04-06T12:40:53.447Z,12.76
2023-04-06T12:41:53.442Z,12.79
2023-04-06T12:42:53.463Z,12.80
2023-04-06T12:43:53.415Z,12.81
2023-04-06T12:44:53.440Z,12.84
2023-04-06T12:45:53.372Z,12.84
2023-04-06T12:46:53.481Z,12.81
2023-04-06T12:47:53.358Z,12.80
2023-04-06T12:48:53.410Z,12.84
2023-04-06T12:49:53.359Z,12.85
2023-04-06T12:50:53.341Z,12.85
2023-04-06T12:51:53.336Z,12.88
2023-04-06T12:52:53.435Z,12.88
2023-04-06T12:53:53.293Z,12.89
2023-04-06T12:54:53.532Z,12.89
2023-04-06T12:55:53.280Z,12.89
2023-04-06T12:56:53.271Z,12.88
2023-04-06T12:57:53.215Z,12.85
2023-04-06T12:58:53.352Z,12.84
2023-04-06T12:59:53.286Z,12.85
2023-04-06T13:00:53.326Z,12.87
2023-04-06T13:01:53.237Z,12.88
2023-04-06T13:02:53.280Z,12.88
2023-04-06T13:03:53.139Z,12.92
2023-04-06T13:04:53.178Z,12.94
2023-04-06T13:05:53.118Z,12.94
2023-04-06T13:06:53.141Z,12.81
2023-04-06T13:07:53.099Z,12.73
2023-04-06T13:08:53.122Z,12.63
2023-04-06T13:09:53.054Z,12.56